createdAt,value
2023-01-18T00:00:33.775Z,96.42
2023-01-18T00:03:02.138Z,96.38
2023-01-18T00:05:30.138Z,96.19
2023-01-18T00:07:58.209Z,96.48
2023-01-18T00:10:27.779Z,96.23
2023-01-18T00:12:56.290Z,95.64
2023-01-18T00:15:24.451Z,95.19
2023-01-18T00:17:52.826Z,95.69
2023-01-18T00:20:23.364Z,95.32
2023-01-18T00:22:52.249Z,95.94
2023-01-18T00:25:21.044Z,96.21
2023-01-18T00:27:51.912Z,96.32
2023-01-18T00:30:21.935Z,96.42
2023-01-18T00:32:50.163Z,97.15
2023-01-18T00:35:22.204Z,96.36
2023-01-18T00:37:50.445Z,96.92
2023-01-18T00:40:19.015Z,97.40
2023-01-18T00:43:04.221Z,97.09
2023-01-18T00:45:33.492Z,97.55
2023-01-18T00:48:02.715Z,98.06
2023-01-18T00:50:31.033Z,97.72
2023-01-18T00:53:00.183Z,97.75
2023-01-18T00:55:28.360Z,97.84
2023-01-18T00:57:56.215Z,97.12
2023-01-18T01:00:27.065Z,97.28
2023-01-18T01:02:57.014Z,97.47
2023-01-18T01:05:44.290Z,97.67
2023-01-18T01:08:17.466Z,98.09
2023-01-18T01:10:46.628Z,98.12
2023-01-18T01:13:32.260Z,98.22
2023-01-18T01:16:17.808Z,98.08
2023-01-18T01:19:04.628Z,98.43
2023-01-18T01:21:49.894Z,98.18
2023-01-18T01:24:35.141Z,97.83
2023-01-18T01:27:02.965Z,98.35
2023-01-18T01:29:31.145Z,97.85
2023-01-18T01:31:59.099Z,98.14
2023-01-18T01:34:30.040Z,98.07
2023-01-18T01:36:58.027Z,98.28
2023-01-18T01:39:25.939Z,98.47
2023-01-18T01:41:53.930Z,99.11
2023-01-18T01:44:44.804Z,98.39
2023-01-18T01:47:15.567Z,98.65
2023-01-18T01:49:48.389Z,98.64
2023-01-18T01:52:18.303Z,98.52
2023-01-18T01:54:48.827Z,98.67
2023-01-18T01:57:20.564Z,98.69
2023-01-18T01:59:52.427Z,99.29
2023-01-18T02:02:20.466Z,100.00
2023-01-18T02:04:53.940Z,100.00
2023-01-18T02:07:22.383Z,100.00
2023-01-18T02:09:51.240Z,100.00
2023-01-18T02:12:19.226Z,100.00
2023-01-18T02:14:47.729Z,99.88
2023-01-18T02:17:30.943Z,99.40
2023-01-18T02:20:34.771Z,98.81
2023-01-18T02:23:23.613Z,98.15
2023-01-18T02:26:14.048Z,98.08
2023-01-18T02:28:47.041Z,97.78
2023-01-18T02:31:17.287Z,97.46
2023-01-18T02:33:47.120Z,97.51
2023-01-18T02:36:22.145Z,97.32
2023-01-18T02:38:57.538Z,97.31
2023-01-18T02:41:51.699Z,97.93
2023-01-18T02:44:54.295Z,97.89
2023-01-18T02:47:22.000Z,97.76
2023-01-18T02:49:49.873Z,97.58
2023-01-18T02:52:40.794Z,97.48
2023-01-18T02:55:13.497Z,97.06
2023-01-18T02:57:41.789Z,97.68
2023-01-18T03:00:12.882Z,97.36
2023-01-18T03:02:41.507Z,97.59
2023-01-18T03:05:10.635Z,97.62
2023-01-18T03:07:43.022Z,97.96
2023-01-18T03:10:12.331Z,97.19
2023-01-18T03:12:47.446Z,97.36
2023-01-18T03:15:21.588Z,97.20
2023-01-18T03:17:52.191Z,97.04
2023-01-18T03:20:25.699Z,96.28
2023-01-18T03:23:15.301Z,95.95
2023-01-18T03:25:44.911Z,95.84
2023-01-18T03:28:32.566Z,95.90
2023-01-18T03:31:22.730Z,95.43
2023-01-18T03:33:54.414Z,95.73
2023-01-18T03:36:28.082Z,95.43
2023-01-18T03:38:57.975Z,95.05
2023-01-18T03:41:28.242Z,94.94
2023-01-18T03:43:58.613Z,95.23
2023-01-18T03:46:30.404Z,95.07
2023-01-18T03:48:58.229Z,95.01
2023-01-18T03:51:30.201Z,94.34
2023-01-18T03:54:02.665Z,94.29
2023-01-18T03:56:35.906Z,94.11
2023-01-18T03:59:05.876Z,93.59
2023-01-18T04:01:35.314Z,93.24
2023-01-18T04:04:03.444Z,93.39
2023-01-18T04:06:32.538Z,93.38
2023-01-18T04:09:00.426Z,93.57
2023-01-18T04:11:28.174Z,93.66
2023-01-18T04:13:55.878Z,94.57
2023-01-18T04:16:23.903Z,94.14
2023-01-18T04:18:53.489Z,94.41
2023-01-18T04:21:21.161Z,94.66
2023-01-18T04:23:48.892Z,95.61
2023-01-18T04:26:16.828Z,96.03
2023-01-18T04:28:44.604Z,96.35
2023-01-18T04:31:12.507Z,95.60
2023-01-18T04:33:40.300Z,95.96
2023-01-18T04:36:10.392Z,95.95
2023-01-18T04:38:38.136Z,96.53
2023-01-18T04:41:06.462Z,96.46
2023-01-18T04:43:34.257Z,95.91
2023-01-18T04:46:02.040Z,96.18
2023-01-18T04:48:29.943Z,95.74
2023-01-18T04:50:57.798Z,95.58
2023-01-18T04:53:27.130Z,96.34
2023-01-18T04:55:55.134Z,95.47
2023-01-18T04:58:22.881Z,95.20
2023-01-18T05:00:50.664Z,94.73
2023-01-18T05:03:18.435Z,93.90
2023-01-18T05:05:47.047Z,93.65
2023-01-18T05:08:14.907Z,93.08
2023-01-18T05:10:44.059Z,92.38
2023-01-18T05:13:11.794Z,92.51
2023-01-18T05:15:40.102Z,92.16
2023-01-18T05:18:08.067Z,92.61
2023-01-18T05:20:35.787Z,91.99
2023-01-18T05:23:10.637Z,92.53
2023-01-18T05:25:40.168Z,92.54
2023-01-18T05:28:09.696Z,92.33
2023-01-18T05:31:09.704Z,92.68
2023-01-18T05:33:37.834Z,92.44
2023-01-18T05:36:05.995Z,92.06
2023-01-18T05:38:33.634Z,91.74
2023-01-18T05:41:01.530Z,91.60
2023-01-18T05:43:30.708Z,91.54
2023-01-18T05:45:58.756Z,91.41
2023-01-18T05:48:26.930Z,91.46
2023-01-18T05:50:54.568Z,91.28
2023-01-18T05:53:23.146Z,91.00
2023-01-18T05:55:58.288Z,91.21
2023-01-18T05:58:26.268Z,91.59
2023-01-18T06:00:55.930Z,91.49
2023-01-18T06:03:25.231Z,91.03
2023-01-18T06:05:53.402Z,91.23
2023-01-18T06:08:21.262Z,91.03
2023-01-18T06:10:53.979Z,91.19
2023-01-18T06:13:22.070Z,91.13
2023-01-18T06:15:49.865Z,91.23
2023-01-18T06:18:19.183Z,91.10
2023-01-18T06:20:46.864Z,91.36
2023-01-18T06:23:14.875Z,91.10
2023-01-18T06:25:42.500Z,91.54
2023-01-18T06:28:10.212Z,91.34
2023-01-18T06:30:37.930Z,91.35
2023-01-18T06:33:07.043Z,91.35
2023-01-18T06:35:37.146Z,91.09
2023-01-18T06:38:05.856Z,91.29
2023-01-18T06:40:33.596Z,91.11
2023-01-18T06:43:01.600Z,91.35
2023-01-18T06:45:29.767Z,91.42
2023-01-18T06:47:57.493Z,90.96
2023-01-18T06:50:25.765Z,91.03
2023-01-18T06:52:55.852Z,91.28
2023-01-18T06:55:23.785Z,91.90
2023-01-18T06:57:51.395Z,91.79
2023-01-18T07:00:19.891Z,91.33
2023-01-18T07:02:47.532Z,91.79
2023-01-18T07:05:15.131Z,91.91
2023-01-18T07:07:42.770Z,91.83
2023-01-18T07:10:16.096Z,92.50
2023-01-18T07:12:48.647Z,91.81
2023-01-18T07:15:21.848Z,91.85
2023-01-18T07:17:50.852Z,93.12
2023-01-18T07:20:19.935Z,93.80
2023-01-18T07:22:52.576Z,94.20
2023-01-18T07:25:22.600Z,94.60
2023-01-18T07:27:50.259Z,94.72
2023-01-18T07:30:18.708Z,94.70
2023-01-18T07:32:49.406Z,94.87
2023-01-18T07:35:18.384Z,95.26
2023-01-18T07:37:49.183Z,95.91
2023-01-18T07:40:17.227Z,95.85
2023-01-18T07:42:46.751Z,95.63
2023-01-18T07:45:14.779Z,95.30
2023-01-18T07:47:42.628Z,95.68
2023-01-18T07:50:11.905Z,95.63
2023-01-18T07:52:39.579Z,94.68
2023-01-18T07:55:07.885Z,95.14
2023-01-18T07:57:35.690Z,95.13
2023-01-18T08:00:07.175Z,94.47
2023-01-18T08:02:35.196Z,93.55
2023-01-18T08:05:03.726Z,93.45
2023-01-18T08:07:32.990Z,92.76
2023-01-18T08:10:00.704Z,92.44
2023-01-18T08:12:28.478Z,92.74
2023-01-18T08:14:56.100Z,92.79
2023-01-18T08:17:25.157Z,92.18
2023-01-18T08:19:52.819Z,92.07
2023-01-18T08:22:20.435Z,91.76
2023-01-18T08:24:48.028Z,91.88
2023-01-18T08:27:16.763Z,91.87
2023-01-18T08:29:44.384Z,92.68
2023-01-18T08:32:12.030Z,92.36
2023-01-18T08:34:40.951Z,92.22
2023-01-18T08:37:08.646Z,91.53
2023-01-18T08:39:36.234Z,91.24
2023-01-18T08:42:03.851Z,90.75
2023-01-18T08:44:31.492Z,89.90
2023-01-18T08:46:59.250Z,88.33
2023-01-18T08:49:27.546Z,87.76
2023-01-18T08:51:57.396Z,87.05
2023-01-18T08:54:25.560Z,87.22
2023-01-18T08:56:53.302Z,85.87
2023-01-18T08:59:23.684Z,86.09
2023-01-18T09:01:51.431Z,84.77
2023-01-18T09:04:19.425Z,85.33
2023-01-18T09:06:51.508Z,84.79
2023-01-18T09:09:20.561Z,84.70
2023-01-18T09:11:51.665Z,84.97
2023-01-18T09:14:19.741Z,83.19
2023-01-18T09:16:47.713Z,83.92
2023-01-18T09:19:15.531Z,83.20
2023-01-18T09:21:45.828Z,82.09
2023-01-18T09:24:14.055Z,81.99
2023-01-18T09:26:45.084Z,83.17
2023-01-18T09:29:13.129Z,82.78
2023-01-18T09:31:40.762Z,82.54
2023-01-18T09:34:18.783Z,83.18
2023-01-18T09:36:47.595Z,82.06
2023-01-18T09:39:15.232Z,83.12
2023-01-18T09:41:46.975Z,82.97
2023-01-18T09:44:19.290Z,83.73
2023-01-18T09:46:51.868Z,83.81
2023-01-18T09:49:25.763Z,84.57
2023-01-18T09:52:01.110Z,85.09
2023-01-18T09:54:36.762Z,86.38
2023-01-18T09:57:10.103Z,87.99
2023-01-18T09:59:42.999Z,87.89
2023-01-18T10:02:18.433Z,86.44
2023-01-18T10:04:48.887Z,86.61
2023-01-18T10:07:18.034Z,86.47
2023-01-18T10:09:49.623Z,86.79
2023-01-18T10:12:23.640Z,87.16
2023-01-18T10:14:55.759Z,87.69
2023-01-18T10:17:25.310Z,88.74
2023-01-18T10:19:53.025Z,88.52
2023-01-18T10:22:23.661Z,87.13
2023-01-18T10:24:57.462Z,88.35
2023-01-18T10:27:41.463Z,87.22
2023-01-18T10:30:19.640Z,87.22
2023-01-18T10:32:51.905Z,86.75
2023-01-18T10:35:25.963Z,85.72
2023-01-18T10:37:56.518Z,85.27
2023-01-18T10:40:24.270Z,85.34
2023-01-18T10:42:56.659Z,85.21
2023-01-18T10:45:27.334Z,83.77
2023-01-18T10:47:56.771Z,83.65
2023-01-18T10:50:35.634Z,83.18
2023-01-18T10:53:21.011Z,82.66
2023-01-18T10:55:54.132Z,82.68
2023-01-18T10:58:28.043Z,83.22
2023-01-18T11:00:56.225Z,82.99
2023-01-18T11:03:26.274Z,84.34
2023-01-18T11:05:54.261Z,84.81
2023-01-18T11:08:24.071Z,82.86
2023-01-18T11:11:02.085Z,84.68
2023-01-18T11:13:34.753Z,84.20
2023-01-18T11:16:18.051Z,83.77
2023-01-18T11:19:03.288Z,84.65
2023-01-18T11:21:41.123Z,83.99
2023-01-18T11:24:14.013Z,83.77
2023-01-18T11:26:52.096Z,83.84
2023-01-18T11:29:23.245Z,84.84
2023-01-18T11:31:53.052Z,85.01
2023-01-18T11:34:24.278Z,84.54
2023-01-18T11:36:51.941Z,84.00
2023-01-18T11:39:31.122Z,83.59
2023-01-18T11:42:19.689Z,84.08
2023-01-18T11:44:54.695Z,84.26
2023-01-18T11:47:26.974Z,85.41
2023-01-18T11:50:03.722Z,82.19
2023-01-18T11:52:42.284Z,82.96
2023-01-18T11:55:23.460Z,85.84
2023-01-18T11:57:52.175Z,85.09
2023-01-18T12:00:28.087Z,84.32
2023-01-18T12:03:23.386Z,83.64
2023-01-18T12:05:54.870Z,85.48
2023-01-18T12:08:44.930Z,84.62
2023-01-18T12:11:30.686Z,83.80
2023-01-18T12:14:03.137Z,79.96
2023-01-18T12:16:47.393Z,82.44
2023-01-18T12:19:42.986Z,81.14
2023-01-18T12:22:29.667Z,81.98
2023-01-18T12:25:06.594Z,83.67
2023-01-18T12:27:41.609Z,83.37
2023-01-18T12:30:20.229Z,82.40
2023-01-18T12:33:06.609Z,79.57
2023-01-18T12:36:02.772Z,81.27
2023-01-18T12:38:33.234Z,81.08
2023-01-18T12:41:16.522Z,80.56
2023-01-18T12:43:53.248Z,81.26
2023-01-18T12:46:26.198Z,82.45
2023-01-18T12:48:58.791Z,81.01
2023-01-18T12:51:28.567Z,81.22
2023-01-18T12:53:58.725Z,80.87
2023-01-18T12:56:28.890Z,82.01
2023-01-18T12:58:58.970Z,83.24
2023-01-18T13:01:28.732Z,84.12
2023-01-18T13:04:02.043Z,85.08
2023-01-18T13:06:29.907Z,85.38
2023-01-18T13:09:01.112Z,84.45
2023-01-18T13:11:31.759Z,85.18
2023-01-18T13:14:07.152Z,86.08
2023-01-18T13:16:44.432Z,86.31
2023-01-18T13:19:14.956Z,84.82
2023-01-18T13:21:49.545Z,84.80
2023-01-18T13:24:25.247Z,86.03
2023-01-18T13:26:54.172Z,85.14
2023-01-18T13:29:25.888Z,85.26
2023-01-18T13:31:53.953Z,86.42
2023-01-18T13:34:28.766Z,84.24
2023-01-18T13:37:12.931Z,84.76
2023-01-18T13:39:46.163Z,84.19
2023-01-18T13:42:26.614Z,84.51
2023-01-18T13:45:17.207Z,85.84
2023-01-18T13:47:52.331Z,85.39
2023-01-18T13:50:45.229Z,86.03
2023-01-18T13:53:26.676Z,85.83
2023-01-18T13:56:34.520Z,85.63
2023-01-18T13:59:04.825Z,85.97
2023-01-18T14:01:37.330Z,86.59
2023-01-18T14:04:17.470Z,82.00
2023-01-18T14:06:46.879Z,82.36
2023-01-18T14:09:16.225Z,82.47
2023-01-18T14:11:52.161Z,84.29
2023-01-18T14:14:29.282Z,85.24
2023-01-18T14:17:02.439Z,83.56
2023-01-18T14:19:32.614Z,82.84
2023-01-18T14:22:19.291Z,83.16
2023-01-18T14:25:01.956Z,83.06
2023-01-18T14:27:32.595Z,82.75
2023-01-18T14:30:04.493Z,81.30
2023-01-18T14:32:36.120Z,81.88
2023-01-18T14:35:05.540Z,82.45
2023-01-18T14:37:35.580Z,82.30
2023-01-18T14:40:05.549Z,81.41
2023-01-18T14:42:34.994Z,82.56
2023-01-18T14:45:03.354Z,83.38
2023-01-18T14:47:33.487Z,83.39
2023-01-18T14:50:03.262Z,84.10
2023-01-18T14:52:33.195Z,85.12
2023-01-18T14:55:02.558Z,85.28
2023-01-18T14:57:30.492Z,86.10
2023-01-18T15:00:13.036Z,85.41
2023-01-18T15:02:40.832Z,86.19
2023-01-18T15:05:12.509Z,87.07
2023-01-18T15:07:40.890Z,88.23
2023-01-18T15:10:11.324Z,86.41
2023-01-18T15:12:39.377Z,86.96
2023-01-18T15:15:09.985Z,86.63
2023-01-18T15:17:38.719Z,86.64
2023-01-18T15:20:09.651Z,87.04
2023-01-18T15:22:40.479Z,87.28
2023-01-18T15:25:19.077Z,86.77
2023-01-18T15:27:50.386Z,86.32
2023-01-18T15:30:19.819Z,87.58
2023-01-18T15:32:49.287Z,87.57
2023-01-18T15:35:17.504Z,88.12
2023-01-18T15:37:45.221Z,87.11
2023-01-18T15:40:26.913Z,88.67
2023-01-18T15:43:02.028Z,88.74
2023-01-18T15:45:33.094Z,88.76
2023-01-18T15:48:03.398Z,87.76
2023-01-18T15:50:35.637Z,88.56
2023-01-18T15:53:12.057Z,86.92
2023-01-18T15:55:48.513Z,87.68
2023-01-18T15:58:24.062Z,88.71
2023-01-18T16:00:56.145Z,88.50
2023-01-18T16:03:25.392Z,87.99
2023-01-18T16:06:03.628Z,87.97
2023-01-18T16:08:31.506Z,86.71
2023-01-18T16:11:00.609Z,87.71
2023-01-18T16:13:32.851Z,87.59
2023-01-18T16:16:14.403Z,87.31
2023-01-18T16:18:43.957Z,86.47
2023-01-18T16:21:14.947Z,86.84
2023-01-18T16:23:44.449Z,86.75
2023-01-18T16:26:14.487Z,84.44
2023-01-18T16:28:42.185Z,84.69
2023-01-18T16:31:10.004Z,83.47
2023-01-18T16:33:37.787Z,84.67
2023-01-18T16:36:16.534Z,83.28
2023-01-18T16:38:44.252Z,84.27
2023-01-18T16:41:14.800Z,85.53
2023-01-18T16:43:44.935Z,83.96
2023-01-18T16:46:13.077Z,85.46
2023-01-18T16:48:40.886Z,84.49
2023-01-18T16:51:16.059Z,85.89
2023-01-18T16:53:43.989Z,86.33
2023-01-18T16:56:16.664Z,84.82
2023-01-18T16:58:44.722Z,85.10
2023-01-18T17:01:13.870Z,85.34
2023-01-18T17:03:41.959Z,85.76
2023-01-18T17:06:15.771Z,85.43
2023-01-18T17:08:43.497Z,83.61
2023-01-18T17:11:11.990Z,83.91
2023-01-18T17:13:41.382Z,84.94
2023-01-18T17:16:13.332Z,85.18
2023-01-18T17:18:40.965Z,83.63
2023-01-18T17:21:11.103Z,83.84
2023-01-18T17:23:39.983Z,84.00
2023-01-18T17:26:09.137Z,83.82
2023-01-18T17:28:36.833Z,83.50
2023-01-18T17:31:06.236Z,82.50
2023-01-18T17:33:38.398Z,82.73
2023-01-18T17:36:05.993Z,83.02
2023-01-18T17:38:34.282Z,81.68
2023-01-18T17:41:02.574Z,82.05
2023-01-18T17:43:34.615Z,82.88
2023-01-18T17:46:03.673Z,83.88
2023-01-18T17:48:33.113Z,83.54
2023-01-18T17:51:00.887Z,83.74
2023-01-18T17:53:28.747Z,83.81
2023-01-18T17:58:44.294Z,84.30
2023-01-18T18:04:59.350Z,84.25
2023-01-18T18:07:28.156Z,84.97
2023-01-18T18:10:01.074Z,85.25
2023-01-18T18:12:30.417Z,84.99
2023-01-18T18:14:58.539Z,85.23
2023-01-18T18:17:27.944Z,85.25
2023-01-18T18:19:57.249Z,84.45
2023-01-18T18:22:25.396Z,84.98
2023-01-18T18:24:53.640Z,86.26
2023-01-18T18:27:21.979Z,86.24
2023-01-18T18:29:51.279Z,86.75
2023-01-18T18:32:21.392Z,86.18
2023-01-18T18:35:14.698Z,86.08
2023-01-18T18:37:52.394Z,85.94
2023-01-18T18:40:20.511Z,86.46
2023-01-18T18:43:00.641Z,86.91
2023-01-18T18:45:31.049Z,88.80
2023-01-18T18:47:59.016Z,89.97
2023-01-18T18:50:28.966Z,90.79
2023-01-18T18:52:57.684Z,90.84
2023-01-18T18:55:26.489Z,90.72
2023-01-18T18:57:54.798Z,91.55
2023-01-18T19:00:24.593Z,92.16
2023-01-18T19:02:52.533Z,92.24
2023-01-18T19:05:23.887Z,92.39
2023-01-18T19:07:56.877Z,92.14
2023-01-18T19:10:27.529Z,92.24
2023-01-18T19:12:55.820Z,92.78
2023-01-18T19:15:23.925Z,93.24
2023-01-18T19:17:53.582Z,93.92
2023-01-18T19:20:22.183Z,93.95
2023-01-18T19:22:51.114Z,94.51
2023-01-18T19:25:29.523Z,93.82
2023-01-18T19:27:57.546Z,93.28
2023-01-18T19:30:27.509Z,93.38
2023-01-18T19:33:20.725Z,93.62
2023-01-18T19:35:54.303Z,93.53
2023-01-18T19:38:22.848Z,93.59
2023-01-18T19:40:52.309Z,95.13
2023-01-18T19:43:20.395Z,95.17
2023-01-18T19:45:48.951Z,95.77
2023-01-18T19:49:00.429Z,96.32
2023-01-18T19:51:55.793Z,97.71
2023-01-18T19:54:24.727Z,99.31
2023-01-18T19:56:54.201Z,99.65
2023-01-18T19:59:22.114Z,100.00
2023-01-18T20:01:51.827Z,100.00
2023-01-18T20:12:20.635Z,100.00
2023-01-18T20:14:50.406Z,100.00
2023-01-18T20:17:20.059Z,100.00
2023-01-18T20:19:51.284Z,100.00
2023-01-18T20:22:19.583Z,100.00
2023-01-18T20:24:47.996Z,100.00
2023-01-18T20:27:18.333Z,100.00
2023-01-18T20:29:46.688Z,100.00
2023-01-18T20:32:17.206Z,100.00
2023-01-18T20:34:52.771Z,100.00
2023-01-18T20:37:22.428Z,100.00
2023-01-18T20:39:51.075Z,100.00
2023-01-18T20:42:20.884Z,100.00
2023-01-18T20:45:03.990Z,100.00
2023-01-18T20:47:32.958Z,100.00
2023-01-18T20:50:44.690Z,100.00
2023-01-18T20:53:15.305Z,100.00
2023-01-18T20:55:45.180Z,100.00
2023-01-18T20:58:19.653Z,100.00
2023-01-18T21:00:47.755Z,100.00
2023-01-18T21:03:17.967Z,100.00
2023-01-18T21:05:46.632Z,100.00
2023-01-18T21:08:17.436Z,100.00
2023-01-18T21:10:46.310Z,100.00
2023-01-18T21:13:14.211Z,100.00
2023-01-18T21:15:45.944Z,100.00
2023-01-18T21:18:14.001Z,100.00
2023-01-18T21:20:41.956Z,100.00
2023-01-18T21:23:10.877Z,100.00
2023-01-18T21:25:38.917Z,100.00
2023-01-18T21:28:06.775Z,100.00
2023-01-18T21:30:34.724Z,100.00
2023-01-18T21:33:04.037Z,100.00
2023-01-18T21:35:32.104Z,100.00
2023-01-18T21:38:02.949Z,100.00
2023-01-18T21:40:30.981Z,100.00
2023-01-18T21:43:24.636Z,100.00
2023-01-18T21:45:59.083Z,100.00
2023-01-18T21:48:30.009Z,100.00
2023-01-18T21:51:18.229Z,100.00
2023-01-18T21:54:03.478Z,100.00
2023-01-18T21:56:31.592Z,100.00
2023-01-18T21:59:01.133Z,100.00
2023-01-18T22:01:34.447Z,100.00
2023-01-18T22:04:22.505Z,100.00
2023-01-18T22:06:51.122Z,100.00
2023-01-18T22:09:19.210Z,100.00
2023-01-18T22:11:47.500Z,100.00
2023-01-18T22:14:15.636Z,100.00
2023-01-18T22:16:43.733Z,100.00
2023-01-18T22:19:13.275Z,100.00
2023-01-18T22:21:41.255Z,100.00
2023-01-18T22:24:09.619Z,100.00
2023-01-18T22:26:39.044Z,100.00
2023-01-18T22:29:06.987Z,100.00
2023-01-18T22:31:34.834Z,100.00
2023-01-18T22:34:04.616Z,100.00
2023-01-18T22:36:35.178Z,100.00
2023-01-18T22:39:03.239Z,100.00
2023-01-18T22:41:31.202Z,100.00
2023-01-18T22:43:59.168Z,100.00
2023-01-18T22:46:27.336Z,100.00
2023-01-18T22:48:55.285Z,100.00
2023-01-18T22:51:24.221Z,100.00
2023-01-18T22:53:53.700Z,100.00
2023-01-18T22:56:23.508Z,100.00
2023-01-18T22:58:52.937Z,100.00
2023-01-18T23:01:22.556Z,100.00
2023-01-18T23:03:51.141Z,100.00
2023-01-18T23:06:20.286Z,100.00
2023-01-18T23:08:48.613Z,100.00
2023-01-18T23:11:19.788Z,100.00
2023-01-18T23:14:15.479Z,100.00
2023-01-18T23:17:06.826Z,100.00
2023-01-18T23:19:34.851Z,100.00
2023-01-18T23:22:07.181Z,100.00
2023-01-18T23:24:36.034Z,100.00
2023-01-18T23:27:06.216Z,100.00
2023-01-18T23:29:34.064Z,100.00
2023-01-18T23:32:01.872Z,100.00
2023-01-18T23:34:29.971Z,100.00
2023-01-18T23:36:58.339Z,100.00
2023-01-18T23:39:43.981Z,100.00
2023-01-18T23:42:30.810Z,100.00
2023-01-18T23:45:16.489Z,100.00
2023-01-18T23:48:01.949Z,100.00
2023-01-18T23:50:47.516Z,100.00
2023-01-18T23:53:32.625Z,100.00
2023-01-18T23:56:00.715Z,100.00
2023-01-18T23:58:29.978Z,100.00
